Time;durP1;ratioP1;P1;durP2;ratioP2;P2;SDS_P1;SDS_P2;PMS_P1;PMS_P2;Temp;Humidity;BMP_temperature;BMP_pressure;BME280_temperature;BME280_humidity;BME280_pressure;Samples;Min_cycle;Max_cycle;Signal;HPM_P1;HPM_P2
2022/07/22 00:01:24;;;;;;;5.18;3.80;;;;;;;26.02;41.93;99967.88;4461164;32;33529;-83
2022/07/22 00:03:53;;;;;;;5.60;3.62;;;;;;;25.81;42.32;99968.25;4448427;32;32289;-83
2022/07/22 00:06:21;;;;;;;4.10;3.62;;;;;;;25.78;42.30;99969.44;4474919;32;33598;-83
2022/07/22 00:08:50;;;;;;;5.37;4.05;;;;;;;25.86;42.09;99963.22;4461193;32;33541;-83
2022/07/22 00:11:19;;;;;;;8.35;4.45;;;;;;;25.92;42.27;99969.84;4470463;32;32937;-85
2022/07/22 00:13:47;;;;;;;6.47;4.40;;;;;;;25.90;42.35;99956.47;4458153;32;34128;-85
2022/07/22 00:16:15;;;;;;;6.87;4.60;;;;;;;25.83;42.28;99962.69;4461758;32;33238;-85
2022/07/22 00:18:44;;;;;;;8.52;4.05;;;;;;;25.82;41.89;99959.12;4445737;32;33085;-85
2022/07/22 00:21:12;;;;;;;8.18;4.22;;;;;;;25.76;41.97;99960.63;4459966;32;33522;-84
2022/07/22 00:23:40;;;;;;;10.63;3.72;;;;;;;25.72;42.16;99958.38;4459361;32;33169;-84
2022/07/22 00:26:08;;;;;;;5.57;3.47;;;;;;;25.77;41.85;99958.78;4446394;32;33231;-84
2022/07/22 00:28:36;;;;;;;6.75;3.70;;;;;;;25.63;42.18;99960.19;4460610;32;32700;-84
2022/07/22 00:31:05;;;;;;;8.75;3.78;;;;;;;25.62;42.29;99961.19;4444697;32;32345;-84
2022/07/22 00:33:34;;;;;;;6.32;3.45;;;;;;;25.53;42.76;99959.44;4446789;32;33658;-84
2022/07/22 00:36:02;;;;;;;4.82;3.78;;;;;;;25.59;42.50;99975.06;4445782;32;34334;-85
2022/07/22 00:38:34;;;;;;;6.12;3.47;;;;;;;25.96;41.24;99977.47;4445711;32;34669;-85
2022/07/22 00:41:03;;;;;;;6.82;3.50;;;;;;;25.76;41.60;99986.84;4447124;32;32572;-85
2022/07/22 00:44:05;;;;;;;4.68;3.12;;;;;;;25.24;42.85;99979.53;4458946;32;33337;-84
2022/07/22 00:46:34;;;;;;;2.97;2.58;;;;;;;25.20;42.66;99985.41;4458787;32;32453;-84
2022/07/22 00:49:05;;;;;;;9.98;3.08;;;;;;;25.08;42.32;99990.22;4446198;32;32996;-84
2022/07/22 00:51:33;;;;;;;5.32;3.33;;;;;;;25.00;42.24;99995.50;4444558;32;34129;-84
2022/07/22 00:54:03;;;;;;;4.50;2.70;;;;;;;25.08;42.41;99998.31;4457481;32;33044;-84
2022/07/22 00:56:31;;;;;;;5.00;2.83;;;;;;;25.06;42.40;100000.28;4472314;32;33975;-85
2022/07/22 00:59:03;;;;;;;4.80;2.92;;;;;;;25.17;42.13;99994.69;4457971;32;33905;-85
2022/07/22 01:01:32;;;;;;;3.35;2.45;;;;;;;25.15;41.69;99988.56;4457862;32;33442;-84
2022/07/22 01:04:03;;;;;;;7.20;2.67;;;;;;;24.93;42.22;99989.03;4469530;32;33390;-84
2022/07/22 01:06:32;;;;;;;3.83;2.50;;;;;;;24.70;41.94;99992.19;4472458;32;33537;-84
2022/07/22 01:09:00;;;;;;;3.80;2.87;;;;;;;24.64;42.04;99990.09;4472035;32;33770;-84
2022/07/22 01:11:27;;;;;;;3.00;2.70;;;;;;;24.49;42.62;99994.28;4459297;32;33742;-84
2022/07/22 01:13:56;;;;;;;10.35;2.87;;;;;;;24.55;42.00;99992.87;4459909;32;33343;-84
2022/07/22 01:16:26;;;;;;;7.32;2.53;;;;;;;24.41;42.60;99996.94;4446561;32;33770;-84
2022/07/22 01:18:54;;;;;;;4.90;3.28;;;;;;;24.63;41.62;99992.94;4460288;32;34063;-84
2022/07/22 01:21:24;;;;;;;4.60;2.40;;;;;;;24.64;41.36;99998.19;4446516;32;34417;-84
2022/07/22 01:23:53;;;;;;;6.45;2.55;;;;;;;24.65;41.52;99997.19;4470865;32;33303;-84
2022/07/22 01:26:21;;;;;;;7.12;3.45;;;;;;;24.74;41.78;99993.56;4459240;32;33511;-83
2022/07/22 01:28:51;;;;;;;5.60;3.25;;;;;;;24.53;42.48;99982.19;4474987;32;33603;-83
2022/07/22 01:31:21;;;;;;;3.37;2.70;;;;;;;24.34;43.14;99983.13;4461862;32;32914;-82
2022/07/22 01:33:49;;;;;;;5.95;3.45;;;;;;;24.43;42.94;99984.13;4474427;32;33509;-83
2022/07/22 01:36:18;;;;;;;7.57;4.10;;;;;;;24.27;43.10;99982.06;4472812;32;34256;-83
2022/07/22 01:38:45;;;;;;;11.10;4.43;;;;;;;24.32;42.70;99987.00;4447147;32;33578;-82
2022/07/22 01:41:14;;;;;;;5.80;3.15;;;;;;;24.45;42.36;99984.78;4447766;32;33653;-84
2022/07/22 01:43:42;;;;;;;6.68;3.47;;;;;;;24.40;42.84;99987.09;4461202;32;32576;-84
2022/07/22 01:46:11;;;;;;;8.02;3.83;;;;;;;24.39;42.88;99985.41;4447880;32;32608;-84
2022/07/22 01:48:40;;;;;;;4.57;3.58;;;;;;;24.43;43.02;99984.13;4448898;32;33088;-84
2022/07/22 01:51:08;;;;;;;4.28;2.87;;;;;;;24.36;43.49;99980.31;4459986;32;33200;-84
2022/07/22 01:53:37;;;;;;;6.25;3.80;;;;;;;24.39;43.26;99980.00;4446953;32;33251;-84
2022/07/22 01:56:05;;;;;;;4.95;3.83;;;;;;;24.30;43.30;99978.19;4446942;32;33053;-83
2022/07/22 01:58:34;;;;;;;6.03;4.30;;;;;;;24.24;43.34;99983.19;4445274;32;33695;-83
2022/07/22 02:01:07;;;;;;;4.18;3.78;;;;;;;24.39;42.83;99975.47;4463210;32;34459;-84
2022/07/22 02:03:36;;;;;;;5.72;3.87;;;;;;;24.30;43.11;99983.59;4460590;32;33641;-84
2022/07/22 02:06:05;;;;;;;5.03;3.97;;;;;;;24.34;42.72;99984.97;4446479;32;35257;-84
2022/07/22 02:08:34;;;;;;;5.65;3.90;;;;;;;24.27;42.72;99984.75;4462004;32;33938;-83
2022/07/22 02:11:04;;;;;;;6.80;4.50;;;;;;;24.21;42.97;99999.69;4449403;32;33050;-84
2022/07/22 02:13:32;;;;;;;4.85;4.15;;;;;;;24.19;42.63;99990.88;4446296;32;33104;-83
2022/07/22 02:16:02;;;;;;;12.45;4.43;;;;;;;24.21;42.96;99998.81;4447129;32;33790;-84
2022/07/22 02:18:30;;;;;;;6.40;4.20;;;;;;;24.13;43.97;100001.44;4474334;32;33900;-84
2022/07/22 02:20:58;;;;;;;6.25;4.60;;;;;;;24.02;44.09;100007.84;4449051;32;34396;-84
2022/07/22 02:23:26;;;;;;;7.78;4.50;;;;;;;23.95;43.80;100013.00;4469833;32;33102;-84
2022/07/22 02:25:55;;;;;;;8.32;4.40;;;;;;;23.86;44.30;100008.50;4461442;32;33185;-84
2022/07/22 02:28:23;;;;;;;5.93;4.68;;;;;;;23.94;43.72;100008.59;4446856;32;33010;-84
2022/07/22 02:30:51;;;;;;;4.93;3.80;;;;;;;23.97;43.68;100012.84;4446378;32;33376;-84
2022/07/22 02:33:19;;;;;;;9.18;4.22;;;;;;;23.83;43.94;100005.22;4460096;32;33257;-84
2022/07/22 02:35:47;;;;;;;7.30;3.85;;;;;;;23.60;44.44;100008.25;4446555;32;33577;-85
2022/07/22 02:38:16;;;;;;;7.03;3.90;;;;;;;23.69;44.00;100011.94;4458785;32;34754;-87
2022/07/22 02:40:44;;;;;;;7.30;3.78;;;;;;;23.71;44.39;100018.91;4445413;32;34380;-87
2022/07/22 02:43:12;;;;;;;5.87;3.20;;;;;;;23.63;44.17;100012.50;4474598;31;34008;-87
2022/07/22 02:45:42;;;;;;;4.95;3.05;;;;;;;23.62;43.57;100008.09;4435228;32;32835;-87
2022/07/22 02:48:10;;;;;;;6.18;3.22;;;;;;;23.59;43.71;100011.94;4458786;32;33602;-87
2022/07/22 02:50:44;;;;;;;8.20;2.97;;;;;;;23.52;43.39;100010.81;4447203;32;33268;-87
2022/07/22 02:53:14;;;;;;;3.95;2.95;;;;;;;23.59;43.10;100017.31;4463923;32;33112;-87
2022/07/22 02:55:42;;;;;;;4.68;2.90;;;;;;;23.58;43.36;100015.62;4448817;32;33485;-87
2022/07/22 02:58:16;;;;;;;3.50;2.53;;;;;;;23.50;43.42;100013.69;4448294;32;33691;-87
2022/07/22 03:00:56;;;;;;;4.20;2.70;;;;;;;23.36;44.45;100013.25;4460393;32;33430;-87
2022/07/22 03:03:26;;;;;;;4.05;2.65;;;;;;;23.59;43.21;100014.63;4460185;32;33029;-87
2022/07/22 03:05:54;;;;;;;5.28;2.80;;;;;;;23.49;42.53;100011.09;4472396;32;33494;-88
2022/07/22 03:08:25;;;;;;;4.72;2.60;;;;;;;23.50;43.52;100012.81;4450545;32;33840;-88
2022/07/22 03:10:53;;;;;;;2.72;2.10;;;;;;;23.45;43.60;100012.38;4460311;32;33856;-83
2022/07/22 03:13:22;;;;;;;3.92;2.75;;;;;;;23.40;44.09;100014.66;4462245;32;33754;-84
2022/07/22 03:15:50;;;;;;;6.57;2.50;;;;;;;23.30;44.40;100019.22;4449387;32;33899;-84
2022/07/22 03:18:24;;;;;;;4.28;2.55;;;;;;;23.29;43.76;100018.38;4449716;32;33050;-83
2022/07/22 03:20:52;;;;;;;4.18;1.98;;;;;;;23.14;43.78;100009.87;4463916;32;34226;-84
2022/07/22 03:23:21;;;;;;;5.40;2.50;;;;;;;23.31;43.37;100016.41;4460855;32;32321;-84
2022/07/22 03:25:50;;;;;;;3.83;2.20;;;;;;;23.33;43.76;100018.94;4474825;32;33635;-84
2022/07/22 03:28:18;;;;;;;3.92;2.20;;;;;;;23.38;43.82;100022.91;4459929;32;34717;-85
2022/07/22 03:30:46;;;;;;;6.07;3.00;;;;;;;23.38;43.12;100022.06;4446497;32;34189;-84
2022/07/22 03:33:15;;;;;;;3.62;2.53;;;;;;;23.32;43.98;100025.31;4473422;32;32721;-84
2022/07/22 03:35:44;;;;;;;5.62;2.28;;;;;;;23.37;43.29;100021.22;4459644;32;33223;-84
2022/07/22 03:38:15;;;;;;;4.12;2.70;;;;;;;23.30;43.53;100030.84;4462397;32;32698;-83
2022/07/22 03:40:45;;;;;;;4.87;2.53;;;;;;;23.40;44.08;100031.69;4457708;32;34175;-83
2022/07/22 03:43:13;;;;;;;2.87;2.22;;;;;;;23.24;44.94;100029.56;4447934;32;33290;-83
2022/07/22 03:45:40;;;;;;;4.22;2.33;;;;;;;23.30;44.82;100035.38;4460110;32;34515;-83
2022/07/22 03:48:09;;;;;;;8.13;2.40;;;;;;;23.34;44.41;100037.66;4448140;32;33282;-83
2022/07/22 03:50:37;;;;;;;4.03;2.30;;;;;;;23.31;44.35;100032.56;4447512;32;33416;-85
2022/07/22 03:53:05;;;;;;;5.32;2.37;;;;;;;23.40;44.59;100047.00;4448313;32;34024;-85
2022/07/22 03:55:34;;;;;;;3.72;2.30;;;;;;;23.49;45.13;100040.75;4461009;32;34296;-84
2022/07/22 03:58:03;;;;;;;5.35;2.42;;;;;;;23.58;44.69;100029.09;4461250;32;34435;-84
2022/07/22 04:00:31;;;;;;;4.45;2.10;;;;;;;23.57;45.17;100031.94;4448083;32;33987;-83
2022/07/22 04:03:01;;;;;;;7.57;2.25;;;;;;;23.68;44.82;100027.25;4465529;32;34016;-83
2022/07/22 04:05:30;;;;;;;7.72;2.70;;;;;;;24.08;43.17;100030.72;4460616;32;34205;-84
2022/07/22 04:07:58;;;;;;;6.53;2.60;;;;;;;23.88;44.57;100029.91;4445338;32;34630;-83
2022/07/22 04:10:27;;;;;;;4.75;3.45;;;;;;;23.92;44.78;100032.16;4470116;32;33544;-84
2022/07/22 04:12:57;;;;;;;5.43;2.78;;;;;;;24.00;44.91;100028.75;4459522;32;31911;-84
2022/07/22 04:15:27;;;;;;;10.18;3.00;;;;;;;24.01;44.89;100025.03;4457836;32;31961;-84
2022/07/22 04:17:58;;;;;;;4.57;2.70;;;;;;;24.10;44.23;100026.00;4472575;32;33815;-84
2022/07/22 04:20:27;;;;;;;6.30;2.25;;;;;;;24.36;44.06;100023.47;4446704;32;33575;-84
2022/07/22 04:22:56;;;;;;;6.78;2.97;;;;;;;24.43;43.86;100025.44;4462406;32;33068;-84
2022/07/22 04:25:23;;;;;;;11.38;3.15;;;;;;;24.36;44.20;100023.47;4461043;32;33516;-84
2022/07/22 04:27:52;;;;;;;9.77;2.50;;;;;;;24.37;44.46;100019.81;4433177;32;34668;-85
2022/07/22 04:30:20;;;;;;;3.70;2.30;;;;;;;24.36;43.22;100012.69;4460946;32;33813;-84
2022/07/22 04:32:50;;;;;;;6.78;2.45;;;;;;;24.67;41.95;100019.47;4445605;32;32466;-84
2022/07/22 04:35:20;;;;;;;5.35;3.30;;;;;;;25.03;42.88;100022.22;4459200;32;33638;-85
2022/07/22 04:37:49;;;;;;;6.15;3.08;;;;;;;25.03;43.28;100016.81;4456387;32;33513;-85
2022/07/22 04:40:16;;;;;;;5.12;3.15;;;;;;;25.25;43.58;100018.19;4464784;32;33793;-83
2022/07/22 04:42:47;;;;;;;4.45;2.45;;;;;;;25.21;42.74;100008.69;4454052;32;33442;-83
2022/07/22 04:45:16;;;;;;;7.85;2.78;;;;;;;25.37;41.91;100016.13;4454261;32;34955;-83
2022/07/22 04:47:44;;;;;;;6.43;2.92;;;;;;;25.54;42.90;100015.22;4458814;32;34471;-84
2022/07/22 04:50:12;;;;;;;5.93;2.22;;;;;;;25.66;43.04;100013.13;4464928;32;32789;-83
2022/07/22 04:52:41;;;;;;;9.30;2.47;;;;;;;25.78;42.46;100006.47;4447220;32;32322;-85
2022/07/22 04:55:17;;;;;;;11.32;2.50;;;;;;;25.97;41.08;100000.84;4464739;32;33827;-84
2022/07/22 04:57:48;;;;;;;14.68;2.45;;;;;;;25.85;41.88;100012.09;4464110;32;34372;-84
2022/07/22 05:00:19;;;;;;;5.40;2.10;;;;;;;26.07;41.19;100008.81;4458382;32;34364;-84
2022/07/22 05:02:48;;;;;;;3.75;2.35;;;;;;;26.26;40.54;100005.03;4475513;31;33306;-83
2022/07/22 05:05:19;;;;;;;4.28;1.92;;;;;;;26.36;41.06;100013.00;4450330;32;33777;-84
2022/07/22 05:07:57;;;;;;;4.90;2.47;;;;;;;26.34;40.36;100007.75;4476151;31;33825;-83
2022/07/22 05:10:34;;;;;;;4.20;2.10;;;;;;;26.48;39.76;100007.16;4449672;32;33880;-83
2022/07/22 05:13:03;;;;;;;7.63;2.40;;;;;;;26.51;39.40;100017.66;4473490;31;33584;-83
2022/07/22 05:15:34;;;;;;;21.62;3.58;;;;;;;26.87;38.16;100016.53;4438574;32;32915;-83
2022/07/22 05:18:02;;;;;;;13.90;4.20;;;;;;;26.95;37.66;100019.28;4463517;32;34014;-85
2022/07/22 05:20:31;;;;;;;14.07;3.22;;;;;;;27.08;37.67;100025.09;4436145;32;32673;-84
2022/07/22 05:22:59;;;;;;;7.25;2.33;;;;;;;26.94;37.22;100028.44;4452218;32;32674;-84
2022/07/22 05:25:31;;;;;;;5.30;2.83;;;;;;;26.74;36.19;100020.59;4457580;32;33940;-84
2022/07/22 05:27:59;;;;;;;7.43;2.45;;;;;;;27.08;37.09;100022.38;4445526;32;33584;-84
2022/07/22 05:30:28;;;;;;;4.00;2.25;;;;;;;27.46;36.27;100022.72;4447323;32;34112;-84
2022/07/22 05:32:56;;;;;;;5.30;1.92;;;;;;;27.57;34.99;100027.78;4479545;31;32992;-84
2022/07/22 05:35:34;;;;;;;5.60;2.25;;;;;;;27.73;35.47;100026.97;4462705;32;31874;-84
2022/07/22 05:38:03;;;;;;;5.55;2.97;;;;;;;28.01;34.16;100032.81;4447857;32;34381;-84
2022/07/22 05:40:36;;;;;;;11.60;2.83;;;;;;;28.02;33.96;100035.38;4447410;32;33287;-83
2022/07/22 05:43:07;;;;;;;5.12;2.58;;;;;;;28.01;33.88;100036.41;4464029;32;33349;-83
2022/07/22 05:45:35;;;;;;;5.62;2.78;;;;;;;28.28;33.16;100037.81;4462474;32;32798;-84
2022/07/22 05:48:05;;;;;;;4.82;2.67;;;;;;;28.32;33.85;100031.03;4462911;32;33698;-84
2022/07/22 05:50:36;;;;;;;5.45;2.45;;;;;;;28.49;32.99;100031.00;4452930;32;33235;-84
2022/07/22 05:53:04;;;;;;;8.95;2.53;;;;;;;28.54;33.73;100031.31;4461204;32;34140;-84
2022/07/22 05:55:33;;;;;;;8.13;3.08;;;;;;;28.73;34.06;100032.75;4459003;32;33550;-83
2022/07/22 05:58:04;;;;;;;7.12;3.47;;;;;;;29.09;34.13;100039.31;4458731;32;32664;-83
2022/07/22 06:00:32;;;;;;;13.65;3.78;;;;;;;29.26;35.87;100036.47;4462513;32;33510;-83
2022/07/22 06:03:02;;;;;;;3.25;2.50;;;;;;;29.42;34.50;100032.78;4458407;32;32896;-83
2022/07/22 06:05:35;;;;;;;;;;;;;;;29.58;33.80;100027.22;4461761;32;33934;-83
2022/07/22 06:08:11;;;;;;;8.15;2.50;;;;;;;29.71;33.28;100032.84;4465241;32;33837;-84
2022/07/22 06:10:40;;;;;;;16.58;2.87;;;;;;;29.93;32.84;100024.81;4456252;32;34360;-84
2022/07/22 06:13:11;;;;;;;9.93;2.62;;;;;;;30.14;30.61;100024.09;4450759;32;30847;-83
2022/07/22 06:15:40;;;;;;;4.17;2.47;;;;;;;30.20;29.85;100028.81;4449220;32;33965;-83
2022/07/22 06:18:13;;;;;;;6.70;2.30;;;;;;;30.40;31.55;100031.78;4452431;32;32148;-83
2022/07/22 06:20:44;;;;;;;7.55;2.33;;;;;;;30.19;30.28;100030.66;4451040;32;34654;-83
2022/07/22 06:23:13;;;;;;;5.18;2.55;;;;;;;30.43;27.33;100026.78;4456095;32;32424;-83
2022/07/22 06:25:42;;;;;;;4.15;2.15;;;;;;;30.69;27.31;100029.00;4462972;32;33466;-84
2022/07/22 06:28:12;;;;;;;2.03;1.80;;;;;;;30.64;27.44;100026.00;4465851;32;32968;-84
2022/07/22 06:30:41;;;;;;;7.60;2.12;;;;;;;30.73;25.74;100022.16;4465597;32;33004;-85
2022/07/22 06:33:09;;;;;;;4.25;2.15;;;;;;;30.83;26.44;100022.69;4465304;32;32913;-83
2022/07/22 06:35:42;;;;;;;3.70;2.33;;;;;;;30.74;26.89;100015.69;4460494;32;33924;-84
2022/07/22 06:38:10;;;;;;;4.62;2.20;;;;;;;30.72;25.28;100025.94;4458764;32;34058;-83
2022/07/22 06:41:01;;;;;;;5.25;1.45;;;;;;;30.76;25.97;100027.22;4445804;32;32575;-82
2022/07/22 06:43:32;;;;;;;3.35;2.00;;;;;;;31.24;27.02;100022.06;4467195;32;31228;-84
2022/07/22 06:46:03;;;;;;;5.65;2.30;;;;;;;31.49;26.15;100027.97;4462102;32;34115;-83
2022/07/22 06:48:37;;;;;;;5.22;2.12;;;;;;;31.62;25.63;100029.97;4463786;32;34086;-84
2022/07/22 06:51:08;;;;;;;7.68;2.80;;;;;;;31.82;25.05;100020.06;4452459;32;32531;-82
2022/07/22 06:53:37;;;;;;;2.30;1.80;;;;;;;31.74;24.95;100025.66;4465239;32;33521;-83
2022/07/22 06:56:09;;;;;;;3.22;2.40;;;;;;;31.75;24.50;100021.03;4454889;32;33379;-83
2022/07/22 06:58:46;;;;;;;3.40;2.08;;;;;;;31.91;24.21;100019.94;4470311;32;33514;-85
2022/07/22 07:01:15;;;;;;;6.43;1.25;;;;;;;32.05;23.97;100013.50;4460949;32;32967;-84
2022/07/22 07:03:45;;;;;;;5.03;2.08;;;;;;;32.35;21.71;100014.91;4464654;32;32857;-84
2022/07/22 07:06:15;;;;;;;;;;;;;;;32.30;22.60;100011.94;4476283;31;33804;-84
2022/07/22 07:08:47;;;;;;;5.28;1.37;;;;;;;32.27;23.10;100012.34;4475256;31;33539;-85
2022/07/22 07:11:16;;;;;;;2.85;2.03;;;;;;;32.35;21.96;100009.44;4475321;31;33364;-84
2022/07/22 07:13:47;;;;;;;3.65;1.92;;;;;;;32.02;22.57;100011.16;4480502;31;32956;-84
2022/07/22 07:16:16;;;;;;;4.25;2.12;;;;;;;32.56;22.17;100002.19;4461885;32;33193;-84
2022/07/22 07:18:47;;;;;;;6.15;1.75;;;;;;;32.92;21.69;100003.81;4455561;32;32740;-87
2022/07/22 07:21:19;;;;;;;5.10;1.50;;;;;;;32.67;21.78;100006.25;4452367;32;32716;-84
2022/07/22 07:23:48;;;;;;;5.00;2.25;;;;;;;32.98;21.53;100000.22;4456712;32;32291;-84
2022/07/22 07:26:21;;;;;;;4.87;1.80;;;;;;;32.77;22.39;100013.00;4446556;32;31472;-85
2022/07/22 07:28:51;;;;;;;5.85;1.45;;;;;;;33.21;22.91;100008.03;4466105;32;32894;-86
2022/07/22 07:31:20;;;;;;;8.05;2.05;;;;;;;33.35;22.47;100002.38;4447366;32;33683;-86
2022/07/22 07:33:51;;;;;;;6.93;1.85;;;;;;;33.31;24.17;99998.34;4447474;32;33239;-85
2022/07/22 07:36:20;;;;;;;4.78;1.60;;;;;;;32.92;21.98;100010.09;4434246;32;32893;-86
2022/07/22 07:38:52;;;;;;;16.27;2.20;;;;;;;33.26;21.82;99992.69;4471276;32;34208;-86
2022/07/22 07:41:22;;;;;;;3.05;1.65;;;;;;;33.12;21.57;99997.28;4459052;32;32991;-86
2022/07/22 07:43:54;;;;;;;;;;;;;;;33.10;21.58;100006.78;4457502;32;33431;-86
2022/07/22 07:46:24;;;;;;;2.75;1.40;;;;;;;33.48;21.84;99998.81;4458962;32;33835;-86
2022/07/22 07:48:53;;;;;;;8.88;1.67;;;;;;;33.79;21.18;99995.41;4449843;32;33851;-86
2022/07/22 07:51:23;;;;;;;5.55;2.42;;;;;;;34.19;20.13;100000.81;4456948;32;32738;-86
2022/07/22 07:53:59;;;;;;;10.38;1.70;;;;;;;34.28;20.64;100002.28;4449087;32;34178;-85
2022/07/22 07:56:29;;;;;;;4.37;1.50;;;;;;;34.36;19.37;99995.69;4444028;32;33813;-86
2022/07/22 07:59:03;;;;;;;4.45;1.75;;;;;;;34.13;19.86;99996.19;4471729;32;33916;-85
2022/07/22 08:01:57;;;;;;;9.05;1.75;;;;;;;34.10;21.80;100002.13;4462281;32;34242;-85
2022/07/22 08:04:28;;;;;;;2.75;1.70;;;;;;;34.33;19.68;99993.41;4447081;32;33212;-86
2022/07/22 08:07:17;;;;;;;4.55;1.55;;;;;;;34.36;20.41;99993.78;4458586;32;33911;-85
2022/07/22 08:09:47;;;;;;;5.22;1.75;;;;;;;34.32;19.88;99991.69;4459517;32;34504;-85
2022/07/22 08:12:19;;;;;;;6.15;2.28;;;;;;;34.46;19.89;99995.25;4447104;32;32807;-85
2022/07/22 08:14:53;;;;;;;7.95;1.67;;;;;;;34.22;19.53;99999.53;4469314;32;33090;-84
2022/07/22 08:17:24;;;;;;;5.32;1.70;;;;;;;34.23;20.48;99991.13;4469542;32;33987;-85
2022/07/22 08:19:52;;;;;;;4.55;1.90;;;;;;;34.49;20.01;99983.84;4454620;32;34304;-85
2022/07/22 08:22:32;;;;;;;2.65;1.80;;;;;;;34.68;19.67;99982.91;4434931;32;32954;-86
2022/07/22 08:25:10;;;;;;;5.43;2.25;;;;;;;34.53;21.49;99985.09;4445762;32;32601;-85
2022/07/22 08:27:43;;;;;;;2.20;1.80;;;;;;;34.46;22.36;99985.13;4458931;32;33026;-85
2022/07/22 08:30:19;;;;;;;6.37;2.55;;;;;;;34.60;19.64;99974.94;4454643;32;33312;-86
2022/07/22 08:32:56;;;;;;;4.28;2.20;;;;;;;34.63;21.53;99971.75;4460676;31;33243;-86
2022/07/22 08:35:25;;;;;;;7.68;2.50;;;;;;;34.89;21.17;99982.53;4458467;32;33623;-84
2022/07/22 08:37:55;;;;;;;5.68;2.10;;;;;;;35.23;21.27;99976.84;4461428;32;31749;-85
2022/07/22 08:40:24;;;;;;;7.00;2.70;;;;;;;34.56;20.38;99985.47;4460509;32;34071;-85
2022/07/22 08:43:02;;;;;;;6.72;2.45;;;;;;;35.07;22.67;99986.47;4448166;32;34250;-86
2022/07/22 08:45:32;;;;;;;8.63;2.20;;;;;;;35.11;19.48;99985.81;4446379;32;32153;-85
2022/07/22 08:48:06;;;;;;;3.25;2.03;;;;;;;35.18;20.13;99984.91;4444697;32;33864;-85
2022/07/22 08:50:40;;;;;;;6.32;2.50;;;;;;;35.44;18.80;99987.44;4471635;32;33626;-84
2022/07/22 08:53:15;;;;;;;3.95;1.95;;;;;;;35.81;19.20;99987.56;4473134;31;33342;-85
2022/07/22 08:55:47;;;;;;;11.82;2.90;;;;;;;35.74;20.25;99981.28;4458083;32;33418;-85
2022/07/22 08:58:22;;;;;;;2.65;1.90;;;;;;;35.02;18.25;99983.56;4461496;32;33892;-85
2022/07/22 09:01:26;;;;;;;5.80;1.70;;;;;;;35.81;18.28;99982.06;4447524;32;33934;-85
2022/07/22 09:04:03;;;;;;;4.62;2.03;;;;;;;36.22;18.82;99978.63;4457977;32;34106;-85
2022/07/22 09:06:48;;;;;;;3.10;1.90;;;;;;;35.95;18.23;99982.78;4455540;32;33222;-85
2022/07/22 09:09:30;;;;;;;5.12;2.12;;;;;;;35.72;19.73;99978.75;4461043;32;33363;-85
2022/07/22 09:12:08;;;;;;;3.72;1.80;;;;;;;36.30;18.58;99983.00;4453873;32;34050;-85
2022/07/22 09:14:48;;;;;;;5.62;2.05;;;;;;;36.90;18.14;99977.53;4457021;32;32904;-84
2022/07/22 09:17:37;;;;;;;5.30;2.10;;;;;;;36.95;17.33;99971.37;4472413;32;34204;-85
2022/07/22 09:20:17;;;;;;;5.85;2.45;;;;;;;36.89;18.28;99973.09;4445075;32;33157;-85
2022/07/22 09:22:57;;;;;;;4.65;2.45;;;;;;;37.06;17.33;99963.13;4457464;32;33569;-85
2022/07/22 09:25:34;;;;;;;8.32;2.70;;;;;;;36.91;17.90;99955.31;4449672;32;33320;-85
2022/07/22 09:28:08;;;;;;;8.52;2.70;;;;;;;37.33;18.34;99958.03;4460236;32;34040;-85
2022/07/22 09:33:44;;;;;;;8.30;2.80;;;;;;;37.54;17.67;99956.59;4457785;32;34403;-85
2022/07/22 09:36:23;;;;;;;11.18;3.03;;;;;;;37.45;18.67;99954.44;4470253;32;34956;-85
2022/07/22 09:38:56;;;;;;;4.35;3.28;;;;;;;37.38;19.16;99955.41;4444469;32;32004;-85
2022/07/22 09:41:25;;;;;;;7.22;3.70;;;;;;;37.75;19.65;99946.91;4471337;32;33431;-85
2022/07/22 09:43:54;;;;;;;12.25;2.90;;;;;;;37.58;18.24;99954.22;4454570;32;34381;-85
2022/07/22 09:46:37;;;;;;;5.40;2.45;;;;;;;37.56;19.18;99950.88;4422314;32;33561;-84
2022/07/22 09:49:06;;;;;;;4.43;2.87;;;;;;;37.68;17.79;99946.19;4446495;32;33117;-85
2022/07/22 09:51:38;;;;;;;8.57;2.80;;;;;;;37.79;18.08;99950.00;4459831;32;33616;-85
2022/07/22 09:54:09;;;;;;;8.40;3.45;;;;;;;38.15;17.56;99946.13;4460725;32;33033;-85
2022/07/22 09:56:38;;;;;;;7.32;3.60;;;;;;;38.20;17.91;99943.47;4459264;32;33474;-85
2022/07/22 09:59:06;;;;;;;6.07;3.45;;;;;;;38.38;19.43;99946.06;4458098;32;32623;-85
2022/07/22 10:01:37;;;;;;;4.82;3.58;;;;;;;38.51;18.03;99938.59;4460312;32;32478;-85
2022/07/22 10:04:10;;;;;;;6.47;3.90;;;;;;;38.73;19.98;99934.03;4457166;32;33512;-85
2022/07/22 10:06:44;;;;;;;7.62;3.58;;;;;;;38.52;19.72;99932.00;4446988;32;32974;-85
2022/07/22 10:09:17;;;;;;;5.95;4.05;;;;;;;38.31;21.32;99931.56;4459618;32;32677;-85
2022/07/22 10:11:47;;;;;;;6.15;3.92;;;;;;;38.15;21.13;99935.09;4446261;32;33439;-85
2022/07/22 10:14:30;;;;;;;6.97;4.78;;;;;;;38.41;22.13;99929.03;4445444;32;35752;-85
2022/07/22 10:17:02;;;;;;;5.30;4.03;;;;;;;38.60;20.79;99928.81;4459037;32;33859;-85
2022/07/22 10:19:39;;;;;;;7.97;3.78;;;;;;;38.54;21.30;99925.13;4446452;32;33286;-85
2022/07/22 10:22:41;;;;;;;8.40;4.25;;;;;;;38.78;20.76;99923.09;4456907;32;34166;-85
2022/07/22 10:25:18;;;;;;;6.28;4.07;;;;;;;38.53;21.02;99919.88;4448307;32;34257;-85
2022/07/22 10:28:07;;;;;;;6.80;4.28;;;;;;;38.88;20.93;99915.00;4460484;32;33791;-85
2022/07/22 10:30:40;;;;;;;13.57;4.43;;;;;;;38.76;20.37;99922.53;4472659;32;32286;-86
2022/07/22 10:33:20;;;;;;;11.10;4.68;;;;;;;38.94;20.64;99921.47;4449217;32;33121;-85
2022/07/22 10:35:58;;;;;;;7.35;3.65;;;;;;;39.01;20.01;99918.53;4460911;32;35438;-85
2022/07/22 10:38:32;;;;;;;7.65;4.15;;;;;;;39.36;20.97;99915.50;4463297;32;33374;-85
2022/07/22 10:41:14;;;;;;;5.05;4.12;;;;;;;39.48;19.71;99910.72;4461316;32;33110;-85
2022/07/22 10:43:43;;;;;;;4.12;3.78;;;;;;;39.45;20.25;99919.53;4449186;32;32357;-86
2022/07/22 10:48:51;;;;;;;8.95;4.30;;;;;;;39.54;19.72;99909.69;4463968;32;32719;-84
2022/07/22 10:51:21;;;;;;;4.78;3.53;;;;;;;39.21;19.55;99902.31;4449887;32;32753;-85
2022/07/22 10:53:59;;;;;;;5.35;3.55;;;;;;;39.16;19.81;99905.78;4447772;32;33443;-85
2022/07/22 10:56:35;;;;;;;8.95;3.83;;;;;;;38.98;19.27;99899.69;4445289;32;33757;-85
2022/07/22 10:59:14;;;;;;;6.25;3.17;;;;;;;39.36;18.31;99899.81;4457869;32;33477;-85
2022/07/22 11:01:46;;;;;;;8.48;3.75;;;;;;;39.43;21.27;99897.69;4448481;32;33492;-85
2022/07/22 11:04:17;;;;;;;5.60;3.67;;;;;;;39.79;19.27;99889.91;4465146;32;34493;-86
2022/07/22 11:06:48;;;;;;;6.53;4.10;;;;;;;39.75;19.77;99888.75;4454830;32;33554;-85
2022/07/22 11:09:18;;;;;;;8.20;3.53;;;;;;;39.39;19.03;99892.91;4458095;32;33906;-85
2022/07/22 11:11:57;;;;;;;7.40;3.10;;;;;;;39.77;18.91;99882.97;4449118;32;33152;-85
2022/07/22 11:14:35;;;;;;;3.90;3.50;;;;;;;40.01;18.48;99884.38;4460861;32;32967;-85
2022/07/22 11:17:07;;;;;;;5.82;3.80;;;;;;;39.88;19.23;99890.28;4454962;32;33735;-85
2022/07/22 11:19:39;;;;;;;4.90;4.05;;;;;;;39.94;20.62;99879.03;4456324;32;34131;-86
2022/07/22 11:22:10;;;;;;;6.50;3.72;;;;;;;39.76;20.45;99879.37;4451007;32;33092;-85
2022/07/22 11:24:40;;;;;;;5.67;3.50;;;;;;;40.18;17.95;99878.78;4448170;32;32591;-85
2022/07/22 11:27:16;;;;;;;6.95;3.92;;;;;;;40.42;17.42;99874.62;4460658;32;33099;-86
2022/07/22 11:32:31;;;;;;;4.12;3.10;;;;;;;40.17;17.88;99869.66;4472484;32;31754;-85
2022/07/22 11:35:01;;;;;;;5.00;3.30;;;;;;;40.36;18.33;99870.16;4459632;32;33396;-85
2022/07/22 11:37:31;;;;;;;;;;;;;;;40.20;16.81;99860.00;4461470;32;32201;-85
2022/07/22 11:40:06;;;;;;;3.87;3.12;;;;;;;40.20;17.32;99857.22;4459918;32;33881;-85
2022/07/22 11:42:35;;;;;;;4.50;3.08;;;;;;;40.07;19.50;99860.38;4449694;32;33795;-85
2022/07/22 11:45:08;;;;;;;4.90;3.08;;;;;;;40.13;18.00;99851.09;4458158;32;34161;-85
2022/07/22 11:47:37;;;;;;;5.03;2.80;;;;;;;40.48;17.98;99856.13;4471822;32;33099;-86
2022/07/22 11:50:12;;;;;;;4.53;3.03;;;;;;;40.03;18.00;99853.72;4445921;32;32837;-85
2022/07/22 11:52:52;;;;;;;3.70;2.60;;;;;;;40.68;16.20;99850.81;4461681;32;32862;-85
2022/07/22 11:55:21;;;;;;;4.53;3.70;;;;;;;40.43;17.17;99845.84;4460253;32;33013;-85
2022/07/22 11:57:56;;;;;;;4.60;2.87;;;;;;;40.23;17.07;99834.59;4456315;32;34448;-85